sensor_id;sensor_type;location;lat;lon;timestamp;P1;durP1;ratioP1;P2;durP2;ratioP2
9970;SDS011;5026;51.494;11.974;2023-02-12T00:01:01;46.43;;;21.03;;
9970;SDS011;5026;51.494;11.974;2023-02-12T00:03:32;38.57;;;19.13;;
9970;SDS011;5026;51.494;11.974;2023-02-12T00:05:59;38.33;;;19.50;;
9970;SDS011;5026;51.494;11.974;2023-02-12T00:08:27;40.73;;;19.50;;
9970;SDS011;5026;51.494;11.974;2023-02-12T00:10:54;38.63;;;18.37;;
9970;SDS011;5026;51.494;11.974;2023-02-12T00:13:22;41.53;;;19.73;;
9970;SDS011;5026;51.494;11.974;2023-02-12T00:15:49;42.47;;;18.73;;
9970;SDS011;5026;51.494;11.974;2023-02-12T00:18:16;44.30;;;21.07;;
9970;SDS011;5026;51.494;11.974;2023-02-12T00:20:43;43.53;;;21.17;;
9970;SDS011;5026;51.494;11.974;2023-02-12T00:23:10;41.10;;;19.50;;
9970;SDS011;5026;51.494;11.974;2023-02-12T00:25:39;40.37;;;19.70;;
9970;SDS011;5026;51.494;11.974;2023-02-12T00:28:07;41.63;;;19.97;;
9970;SDS011;5026;51.494;11.974;2023-02-12T00:30:35;37.40;;;19.33;;
9970;SDS011;5026;51.494;11.974;2023-02-12T00:33:02;40.70;;;19.70;;
9970;SDS011;5026;51.494;11.974;2023-02-12T00:35:29;43.67;;;19.07;;
9970;SDS011;5026;51.494;11.974;2023-02-12T00:37:56;41.90;;;18.70;;
9970;SDS011;5026;51.494;11.974;2023-02-12T00:40:23;41.83;;;18.73;;
9970;SDS011;5026;51.494;11.974;2023-02-12T00:42:50;43.83;;;19.37;;
9970;SDS011;5026;51.494;11.974;2023-02-12T00:45:17;35.97;;;16.70;;
9970;SDS011;5026;51.494;11.974;2023-02-12T00:47:46;37.13;;;18.63;;
9970;SDS011;5026;51.494;11.974;2023-02-12T00:50:13;42.23;;;20.20;;
9970;SDS011;5026;51.494;11.974;2023-02-12T00:52:39;39.37;;;19.10;;
9970;SDS011;5026;51.494;11.974;2023-02-12T00:55:06;41.93;;;18.37;;
9970;SDS011;5026;51.494;11.974;2023-02-12T00:57:33;41.60;;;19.40;;
9970;SDS011;5026;51.494;11.974;2023-02-12T01:00:00;39.70;;;19.27;;
9970;SDS011;5026;51.494;11.974;2023-02-12T01:02:27;41.03;;;19.27;;
9970;SDS011;5026;51.494;11.974;2023-02-12T01:04:55;39.67;;;18.97;;
9970;SDS011;5026;51.494;11.974;2023-02-12T01:07:22;39.83;;;20.27;;
9970;SDS011;5026;51.494;11.974;2023-02-12T01:09:50;38.80;;;20.13;;
9970;SDS011;5026;51.494;11.974;2023-02-12T01:12:17;39.40;;;19.03;;
9970;SDS011;5026;51.494;11.974;2023-02-12T01:14:44;40.50;;;19.00;;
9970;SDS011;5026;51.494;11.974;2023-02-12T01:17:11;40.03;;;19.20;;
9970;SDS011;5026;51.494;11.974;2023-02-12T01:19:38;38.17;;;18.27;;
9970;SDS011;5026;51.494;11.974;2023-02-12T01:22:06;35.67;;;19.10;;
9970;SDS011;5026;51.494;11.974;2023-02-12T01:24:33;42.00;;;18.67;;
9970;SDS011;5026;51.494;11.974;2023-02-12T01:27:00;38.13;;;18.77;;
9970;SDS011;5026;51.494;11.974;2023-02-12T01:29:27;41.70;;;19.27;;
9970;SDS011;5026;51.494;11.974;2023-02-12T01:31:54;39.70;;;19.60;;
9970;SDS011;5026;51.494;11.974;2023-02-12T01:34:20;39.77;;;19.87;;
9970;SDS011;5026;51.494;11.974;2023-02-12T01:36:47;37.77;;;17.50;;
9970;SDS011;5026;51.494;11.974;2023-02-12T01:39:16;37.37;;;19.23;;
9970;SDS011;5026;51.494;11.974;2023-02-12T01:41:43;32.87;;;17.83;;
9970;SDS011;5026;51.494;11.974;2023-02-12T01:44:12;40.27;;;18.47;;
9970;SDS011;5026;51.494;11.974;2023-02-12T01:46:41;36.87;;;18.17;;
9970;SDS011;5026;51.494;11.974;2023-02-12T01:49:11;38.57;;;17.93;;
9970;SDS011;5026;51.494;11.974;2023-02-12T01:51:42;36.17;;;17.73;;
9970;SDS011;5026;51.494;11.974;2023-02-12T01:54:12;40.90;;;18.80;;
9970;SDS011;5026;51.494;11.974;2023-02-12T01:56:42;40.57;;;18.73;;
9970;SDS011;5026;51.494;11.974;2023-02-12T01:59:10;34.13;;;17.30;;
9970;SDS011;5026;51.494;11.974;2023-02-12T02:01:38;35.07;;;17.63;;
9970;SDS011;5026;51.494;11.974;2023-02-12T02:04:06;35.17;;;18.03;;
9970;SDS011;5026;51.494;11.974;2023-02-12T02:06:39;36.47;;;17.60;;
9970;SDS011;5026;51.494;11.974;2023-02-12T02:09:11;34.47;;;16.93;;
9970;SDS011;5026;51.494;11.974;2023-02-12T02:11:40;34.27;;;17.27;;
9970;SDS011;5026;51.494;11.974;2023-02-12T02:14:24;32.67;;;16.10;;
9970;SDS011;5026;51.494;11.974;2023-02-12T02:17:03;33.13;;;17.13;;
9970;SDS011;5026;51.494;11.974;2023-02-12T02:19:57;37.20;;;18.07;;
9970;SDS011;5026;51.494;11.974;2023-02-12T02:22:59;36.37;;;17.27;;
9970;SDS011;5026;51.494;11.974;2023-02-12T02:25:45;34.93;;;16.83;;
9970;SDS011;5026;51.494;11.974;2023-02-12T02:28:36;32.03;;;16.70;;
9970;SDS011;5026;51.494;11.974;2023-02-12T02:31:25;30.67;;;15.63;;
9970;SDS011;5026;51.494;11.974;2023-02-12T02:34:01;28.80;;;15.37;;
9970;SDS011;5026;51.494;11.974;2023-02-12T02:36:34;31.30;;;15.93;;
9970;SDS011;5026;51.494;11.974;2023-02-12T02:39:06;29.77;;;15.67;;
9970;SDS011;5026;51.494;11.974;2023-02-12T02:41:41;30.13;;;15.73;;
9970;SDS011;5026;51.494;11.974;2023-02-12T02:44:14;30.10;;;15.87;;
9970;SDS011;5026;51.494;11.974;2023-02-12T02:46:47;30.17;;;16.13;;
9970;SDS011;5026;51.494;11.974;2023-02-12T02:49:18;33.43;;;16.77;;
9970;SDS011;5026;51.494;11.974;2023-02-12T02:51:48;29.07;;;15.33;;
9970;SDS011;5026;51.494;11.974;2023-02-12T02:54:20;28.50;;;15.87;;
9970;SDS011;5026;51.494;11.974;2023-02-12T02:56:54;27.77;;;13.87;;
9970;SDS011;5026;51.494;11.974;2023-02-12T02:59:26;27.53;;;14.43;;
9970;SDS011;5026;51.494;11.974;2023-02-12T03:02:00;27.40;;;14.90;;
9970;SDS011;5026;51.494;11.974;2023-02-12T03:04:31;27.17;;;13.90;;
9970;SDS011;5026;51.494;11.974;2023-02-12T03:07:03;31.33;;;15.27;;
9970;SDS011;5026;51.494;11.974;2023-02-12T03:09:36;27.87;;;15.00;;
9970;SDS011;5026;51.494;11.974;2023-02-12T03:12:06;26.37;;;13.67;;
9970;SDS011;5026;51.494;11.974;2023-02-12T03:14:37;26.13;;;14.50;;
9970;SDS011;5026;51.494;11.974;2023-02-12T03:17:10;24.70;;;14.43;;
9970;SDS011;5026;51.494;11.974;2023-02-12T03:19:40;27.33;;;15.33;;
9970;SDS011;5026;51.494;11.974;2023-02-12T03:22:11;23.43;;;14.07;;
9970;SDS011;5026;51.494;11.974;2023-02-12T03:24:43;22.90;;;13.57;;
9970;SDS011;5026;51.494;11.974;2023-02-12T03:27:15;23.73;;;14.00;;
9970;SDS011;5026;51.494;11.974;2023-02-12T03:29:45;24.43;;;14.83;;
9970;SDS011;5026;51.494;11.974;2023-02-12T03:32:23;23.93;;;13.37;;
9970;SDS011;5026;51.494;11.974;2023-02-12T03:34:59;24.93;;;13.60;;
9970;SDS011;5026;51.494;11.974;2023-02-12T03:37:33;26.23;;;14.03;;
9970;SDS011;5026;51.494;11.974;2023-02-12T03:40:05;24.33;;;13.43;;
9970;SDS011;5026;51.494;11.974;2023-02-12T03:42:38;24.83;;;13.37;;
9970;SDS011;5026;51.494;11.974;2023-02-12T03:45:13;23.63;;;13.03;;
9970;SDS011;5026;51.494;11.974;2023-02-12T03:47:49;22.63;;;13.03;;
9970;SDS011;5026;51.494;11.974;2023-02-12T03:50:26;23.20;;;13.10;;
9970;SDS011;5026;51.494;11.974;2023-02-12T03:52:58;28.07;;;13.10;;
9970;SDS011;5026;51.494;11.974;2023-02-12T03:55:25;23.60;;;13.17;;
9970;SDS011;5026;51.494;11.974;2023-02-12T03:57:54;23.03;;;13.60;;
9970;SDS011;5026;51.494;11.974;2023-02-12T04:00:25;23.90;;;13.17;;
9970;SDS011;5026;51.494;11.974;2023-02-12T04:02:54;25.43;;;13.27;;
9970;SDS011;5026;51.494;11.974;2023-02-12T04:05:22;22.77;;;12.80;;
9970;SDS011;5026;51.494;11.974;2023-02-12T04:07:51;23.53;;;13.07;;
9970;SDS011;5026;51.494;11.974;2023-02-12T04:10:21;24.93;;;14.37;;
9970;SDS011;5026;51.494;11.974;2023-02-12T04:12:53;25.23;;;14.23;;
9970;SDS011;5026;51.494;11.974;2023-02-12T04:15:28;24.23;;;13.40;;
9970;SDS011;5026;51.494;11.974;2023-02-12T04:18:10;25.87;;;14.23;;
9970;SDS011;5026;51.494;11.974;2023-02-12T04:20:46;21.63;;;12.10;;
9970;SDS011;5026;51.494;11.974;2023-02-12T04:23:26;25.43;;;14.00;;
9970;SDS011;5026;51.494;11.974;2023-02-12T04:26:04;22.63;;;13.10;;
9970;SDS011;5026;51.494;11.974;2023-02-12T04:28:40;25.07;;;13.70;;
9970;SDS011;5026;51.494;11.974;2023-02-12T04:31:12;23.33;;;13.33;;
9970;SDS011;5026;51.494;11.974;2023-02-12T04:33:48;24.23;;;13.30;;
9970;SDS011;5026;51.494;11.974;2023-02-12T04:36:23;25.10;;;12.93;;
9970;SDS011;5026;51.494;11.974;2023-02-12T04:38:53;26.27;;;13.30;;
9970;SDS011;5026;51.494;11.974;2023-02-12T04:41:23;27.97;;;13.70;;
9970;SDS011;5026;51.494;11.974;2023-02-12T04:43:51;27.03;;;13.63;;
9970;SDS011;5026;51.494;11.974;2023-02-12T04:46:18;27.70;;;14.40;;
9970;SDS011;5026;51.494;11.974;2023-02-12T04:48:49;23.90;;;13.03;;
9970;SDS011;5026;51.494;11.974;2023-02-12T04:51:18;24.60;;;13.03;;
9970;SDS011;5026;51.494;11.974;2023-02-12T04:53:45;27.37;;;14.13;;
9970;SDS011;5026;51.494;11.974;2023-02-12T04:56:12;25.73;;;14.23;;
9970;SDS011;5026;51.494;11.974;2023-02-12T04:58:39;24.40;;;12.53;;
9970;SDS011;5026;51.494;11.974;2023-02-12T05:01:07;27.17;;;14.50;;
9970;SDS011;5026;51.494;11.974;2023-02-12T05:03:35;21.67;;;13.03;;
9970;SDS011;5026;51.494;11.974;2023-02-12T05:06:04;26.00;;;15.07;;
9970;SDS011;5026;51.494;11.974;2023-02-12T05:08:32;24.93;;;14.23;;
9970;SDS011;5026;51.494;11.974;2023-02-12T05:11:02;27.63;;;14.13;;
9970;SDS011;5026;51.494;11.974;2023-02-12T05:13:29;24.70;;;13.93;;
9970;SDS011;5026;51.494;11.974;2023-02-12T05:15:56;23.67;;;12.83;;
9970;SDS011;5026;51.494;11.974;2023-02-12T05:18:23;23.50;;;13.10;;
9970;SDS011;5026;51.494;11.974;2023-02-12T05:20:54;22.27;;;12.47;;
9970;SDS011;5026;51.494;11.974;2023-02-12T05:23:23;24.20;;;12.07;;
9970;SDS011;5026;51.494;11.974;2023-02-12T05:25:51;23.97;;;13.30;;
9970;SDS011;5026;51.494;11.974;2023-02-12T05:28:18;25.10;;;14.17;;
9970;SDS011;5026;51.494;11.974;2023-02-12T05:30:45;26.53;;;13.77;;
9970;SDS011;5026;51.494;11.974;2023-02-12T05:33:12;25.30;;;13.50;;
9970;SDS011;5026;51.494;11.974;2023-02-12T05:35:39;25.97;;;13.93;;
9970;SDS011;5026;51.494;11.974;2023-02-12T05:38:06;24.47;;;13.40;;
9970;SDS011;5026;51.494;11.974;2023-02-12T05:40:34;24.90;;;13.90;;
9970;SDS011;5026;51.494;11.974;2023-02-12T05:43:01;22.50;;;12.60;;
9970;SDS011;5026;51.494;11.974;2023-02-12T05:45:28;26.53;;;14.03;;
9970;SDS011;5026;51.494;11.974;2023-02-12T05:47:55;27.23;;;13.93;;
9970;SDS011;5026;51.494;11.974;2023-02-12T05:50:22;27.00;;;14.43;;
9970;SDS011;5026;51.494;11.974;2023-02-12T05:52:49;24.17;;;13.17;;
9970;SDS011;5026;51.494;11.974;2023-02-12T05:55:16;26.93;;;14.87;;
9970;SDS011;5026;51.494;11.974;2023-02-12T05:57:44;22.30;;;12.83;;
9970;SDS011;5026;51.494;11.974;2023-02-12T06:00:11;26.40;;;14.10;;
9970;SDS011;5026;51.494;11.974;2023-02-12T06:02:39;23.20;;;13.57;;
9970;SDS011;5026;51.494;11.974;2023-02-12T06:05:06;23.77;;;13.10;;
9970;SDS011;5026;51.494;11.974;2023-02-12T06:07:33;25.33;;;14.10;;
9970;SDS011;5026;51.494;11.974;2023-02-12T06:10:00;24.73;;;14.07;;
9970;SDS011;5026;51.494;11.974;2023-02-12T06:12:27;25.73;;;13.57;;
9970;SDS011;5026;51.494;11.974;2023-02-12T06:14:55;24.30;;;13.67;;
9970;SDS011;5026;51.494;11.974;2023-02-12T06:17:22;27.37;;;14.47;;
9970;SDS011;5026;51.494;11.974;2023-02-12T06:19:49;23.83;;;12.80;;
9970;SDS011;5026;51.494;11.974;2023-02-12T06:22:16;24.20;;;13.73;;
9970;SDS011;5026;51.494;11.974;2023-02-12T06:24:43;21.43;;;12.40;;
9970;SDS011;5026;51.494;11.974;2023-02-12T06:27:09;23.67;;;12.70;;
9970;SDS011;5026;51.494;11.974;2023-02-12T06:29:36;21.70;;;12.43;;
9970;SDS011;5026;51.494;11.974;2023-02-12T06:32:05;24.70;;;13.83;;
9970;SDS011;5026;51.494;11.974;2023-02-12T06:34:32;23.73;;;13.03;;
9970;SDS011;5026;51.494;11.974;2023-02-12T06:36:59;22.37;;;12.53;;
9970;SDS011;5026;51.494;11.974;2023-02-12T06:39:26;24.67;;;13.10;;
9970;SDS011;5026;51.494;11.974;2023-02-12T06:41:53;25.97;;;13.00;;
9970;SDS011;5026;51.494;11.974;2023-02-12T06:44:20;20.83;;;12.17;;
9970;SDS011;5026;51.494;11.974;2023-02-12T06:46:47;25.30;;;13.23;;
9970;SDS011;5026;51.494;11.974;2023-02-12T06:49:15;23.77;;;13.77;;
9970;SDS011;5026;51.494;11.974;2023-02-12T06:51:42;23.60;;;12.47;;
9970;SDS011;5026;51.494;11.974;2023-02-12T06:54:13;24.13;;;12.87;;
9970;SDS011;5026;51.494;11.974;2023-02-12T06:56:41;21.57;;;12.40;;
9970;SDS011;5026;51.494;11.974;2023-02-12T06:59:10;21.23;;;11.97;;
9970;SDS011;5026;51.494;11.974;2023-02-12T07:01:38;22.40;;;13.03;;
9970;SDS011;5026;51.494;11.974;2023-02-12T07:04:05;22.70;;;12.97;;
9970;SDS011;5026;51.494;11.974;2023-02-12T07:06:34;21.27;;;12.47;;
9970;SDS011;5026;51.494;11.974;2023-02-12T07:09:01;20.83;;;11.70;;
9970;SDS011;5026;51.494;11.974;2023-02-12T07:11:29;25.00;;;13.23;;
9970;SDS011;5026;51.494;11.974;2023-02-12T07:13:57;22.43;;;12.27;;
9970;SDS011;5026;51.494;11.974;2023-02-12T07:16:24;22.63;;;13.03;;
9970;SDS011;5026;51.494;11.974;2023-02-12T07:18:52;23.47;;;12.10;;
9970;SDS011;5026;51.494;11.974;2023-02-12T07:21:19;19.43;;;12.03;;
9970;SDS011;5026;51.494;11.974;2023-02-12T07:23:48;23.27;;;12.80;;
9970;SDS011;5026;51.494;11.974;2023-02-12T07:26:17;23.33;;;13.10;;
9970;SDS011;5026;51.494;11.974;2023-02-12T07:28:44;21.43;;;12.10;;
9970;SDS011;5026;51.494;11.974;2023-02-12T07:31:12;22.43;;;12.33;;
9970;SDS011;5026;51.494;11.974;2023-02-12T07:33:40;21.20;;;12.50;;
9970;SDS011;5026;51.494;11.974;2023-02-12T07:36:08;20.93;;;12.57;;
9970;SDS011;5026;51.494;11.974;2023-02-12T07:38:37;23.50;;;12.43;;
9970;SDS011;5026;51.494;11.974;2023-02-12T07:41:06;20.53;;;12.30;;
9970;SDS011;5026;51.494;11.974;2023-02-12T07:43:36;22.03;;;12.03;;
9970;SDS011;5026;51.494;11.974;2023-02-12T07:46:07;21.07;;;12.33;;
9970;SDS011;5026;51.494;11.974;2023-02-12T07:48:35;22.47;;;11.70;;
9970;SDS011;5026;51.494;11.974;2023-02-12T07:51:02;20.70;;;11.93;;
9970;SDS011;5026;51.494;11.974;2023-02-12T07:53:30;21.83;;;12.10;;
9970;SDS011;5026;51.494;11.974;2023-02-12T07:56:03;19.87;;;11.67;;
9970;SDS011;5026;51.494;11.974;2023-02-12T07:58:35;21.20;;;11.87;;
9970;SDS011;5026;51.494;11.974;2023-02-12T08:01:13;21.90;;;12.23;;
9970;SDS011;5026;51.494;11.974;2023-02-12T08:03:42;20.87;;;12.07;;
9970;SDS011;5026;51.494;11.974;2023-02-12T08:06:10;22.90;;;12.27;;
9970;SDS011;5026;51.494;11.974;2023-02-12T08:08:38;21.20;;;12.40;;
9970;SDS011;5026;51.494;11.974;2023-02-12T08:11:06;24.13;;;12.37;;
9970;SDS011;5026;51.494;11.974;2023-02-12T08:13:35;24.33;;;12.13;;
9970;SDS011;5026;51.494;11.974;2023-02-12T08:16:02;25.20;;;13.17;;
9970;SDS011;5026;51.494;11.974;2023-02-12T08:18:31;24.27;;;13.60;;
9970;SDS011;5026;51.494;11.974;2023-02-12T08:21:02;22.63;;;12.97;;
9970;SDS011;5026;51.494;11.974;2023-02-12T08:23:30;24.50;;;13.30;;
9970;SDS011;5026;51.494;11.974;2023-02-12T08:26:04;19.63;;;12.10;;
9970;SDS011;5026;51.494;11.974;2023-02-12T08:28:33;21.33;;;12.73;;
9970;SDS011;5026;51.494;11.974;2023-02-12T08:31:02;24.00;;;13.20;;
9970;SDS011;5026;51.494;11.974;2023-02-12T08:33:30;21.57;;;11.80;;
9970;SDS011;5026;51.494;11.974;2023-02-12T08:36:01;22.53;;;12.07;;
9970;SDS011;5026;51.494;11.974;2023-02-12T08:38:30;24.83;;;13.47;;
9970;SDS011;5026;51.494;11.974;2023-02-12T08:40:59;24.93;;;12.90;;
9970;SDS011;5026;51.494;11.974;2023-02-12T08:43:27;24.93;;;14.00;;
9970;SDS011;5026;51.494;11.974;2023-02-12T08:45:56;25.27;;;13.10;;
9970;SDS011;5026;51.494;11.974;2023-02-12T08:48:26;24.60;;;13.37;;
9970;SDS011;5026;51.494;11.974;2023-02-12T08:50:53;23.83;;;13.00;;
9970;SDS011;5026;51.494;11.974;2023-02-12T08:53:20;23.77;;;12.43;;
9970;SDS011;5026;51.494;11.974;2023-02-12T08:55:47;22.03;;;12.57;;
9970;SDS011;5026;51.494;11.974;2023-02-12T08:58:15;21.27;;;12.20;;
9970;SDS011;5026;51.494;11.974;2023-02-12T09:00:42;22.07;;;12.50;;
9970;SDS011;5026;51.494;11.974;2023-02-12T09:03:10;21.90;;;12.83;;
9970;SDS011;5026;51.494;11.974;2023-02-12T09:05:37;24.83;;;13.07;;
9970;SDS011;5026;51.494;11.974;2023-02-12T09:08:05;23.10;;;12.67;;
9970;SDS011;5026;51.494;11.974;2023-02-12T09:10:33;22.60;;;12.57;;
9970;SDS011;5026;51.494;11.974;2023-02-12T09:13:00;21.43;;;12.10;;
9970;SDS011;5026;51.494;11.974;2023-02-12T09:15:27;21.27;;;12.40;;
9970;SDS011;5026;51.494;11.974;2023-02-12T09:17:54;20.73;;;12.67;;
9970;SDS011;5026;51.494;11.974;2023-02-12T09:20:23;25.97;;;12.23;;
9970;SDS011;5026;51.494;11.974;2023-02-12T09:22:50;22.33;;;13.47;;
9970;SDS011;5026;51.494;11.974;2023-02-12T09:25:18;22.13;;;12.93;;
9970;SDS011;5026;51.494;11.974;2023-02-12T09:27:44;22.80;;;12.57;;
9970;SDS011;5026;51.494;11.974;2023-02-12T09:30:12;23.13;;;13.47;;
9970;SDS011;5026;51.494;11.974;2023-02-12T09:32:39;23.47;;;13.60;;
9970;SDS011;5026;51.494;11.974;2023-02-12T09:35:06;25.50;;;13.40;;
9970;SDS011;5026;51.494;11.974;2023-02-12T09:37:36;22.87;;;13.33;;
9970;SDS011;5026;51.494;11.974;2023-02-12T09:40:04;23.57;;;13.57;;
9970;SDS011;5026;51.494;11.974;2023-02-12T09:42:36;25.73;;;12.97;;
9970;SDS011;5026;51.494;11.974;2023-02-12T09:45:18;21.83;;;11.97;;
9970;SDS011;5026;51.494;11.974;2023-02-12T09:47:49;21.80;;;11.93;;
9970;SDS011;5026;51.494;11.974;2023-02-12T09:53:12;23.40;;;12.77;;
9970;SDS011;5026;51.494;11.974;2023-02-12T09:55:42;22.47;;;12.90;;
9970;SDS011;5026;51.494;11.974;2023-02-12T09:58:11;22.07;;;12.23;;
9970;SDS011;5026;51.494;11.974;2023-02-12T10:00:41;23.50;;;12.87;;
9970;SDS011;5026;51.494;11.974;2023-02-12T10:03:10;22.97;;;12.93;;
9970;SDS011;5026;51.494;11.974;2023-02-12T10:05:39;22.23;;;11.60;;
9970;SDS011;5026;51.494;11.974;2023-02-12T10:08:18;25.57;;;12.50;;
9970;SDS011;5026;51.494;11.974;2023-02-12T10:11:26;26.50;;;13.33;;
9970;SDS011;5026;51.494;11.974;2023-02-12T10:14:11;25.33;;;13.20;;
9970;SDS011;5026;51.494;11.974;2023-02-12T10:16:54;19.93;;;12.03;;
9970;SDS011;5026;51.494;11.974;2023-02-12T10:19:30;24.53;;;13.17;;
9970;SDS011;5026;51.494;11.974;2023-02-12T10:22:16;22.20;;;11.67;;
9970;SDS011;5026;51.494;11.974;2023-02-12T10:24:58;20.63;;;12.03;;
9970;SDS011;5026;51.494;11.974;2023-02-12T10:27:35;22.73;;;12.40;;
9970;SDS011;5026;51.494;11.974;2023-02-12T10:30:12;22.60;;;13.33;;
9970;SDS011;5026;51.494;11.974;2023-02-12T10:32:43;26.63;;;13.50;;
9970;SDS011;5026;51.494;11.974;2023-02-12T10:35:13;21.67;;;12.53;;
9970;SDS011;5026;51.494;11.974;2023-02-12T10:37:42;25.37;;;13.37;;
9970;SDS011;5026;51.494;11.974;2023-02-12T10:40:16;23.20;;;12.97;;
9970;SDS011;5026;51.494;11.974;2023-02-12T10:42:47;23.27;;;11.73;;
9970;SDS011;5026;51.494;11.974;2023-02-12T10:45:17;23.30;;;12.50;;
9970;SDS011;5026;51.494;11.974;2023-02-12T10:47:46;21.07;;;12.13;;
9970;SDS011;5026;51.494;11.974;2023-02-12T10:50:20;23.63;;;12.33;;
9970;SDS011;5026;51.494;11.974;2023-02-12T10:52:55;21.50;;;12.07;;
9970;SDS011;5026;51.494;11.974;2023-02-12T10:55:27;21.00;;;11.87;;
9970;SDS011;5026;51.494;11.974;2023-02-12T10:57:55;21.87;;;12.03;;
9970;SDS011;5026;51.494;11.974;2023-02-12T11:00:24;20.73;;;11.80;;
9970;SDS011;5026;51.494;11.974;2023-02-12T11:03:04;21.27;;;11.70;;
9970;SDS011;5026;51.494;11.974;2023-02-12T11:05:43;23.30;;;12.00;;
9970;SDS011;5026;51.494;11.974;2023-02-12T11:08:24;22.10;;;12.47;;
9970;SDS011;5026;51.494;11.974;2023-02-12T11:11:06;21.30;;;11.77;;
9970;SDS011;5026;51.494;11.974;2023-02-12T11:13:35;21.33;;;11.50;;
9970;SDS011;5026;51.494;11.974;2023-02-12T11:16:04;24.43;;;13.00;;
9970;SDS011;5026;51.494;11.974;2023-02-12T11:18:32;23.53;;;12.60;;
9970;SDS011;5026;51.494;11.974;2023-02-12T11:21:02;23.37;;;13.43;;
9970;SDS011;5026;51.494;11.974;2023-02-12T11:23:31;26.67;;;13.90;;
9970;SDS011;5026;51.494;11.974;2023-02-12T11:26:01;25.40;;;13.13;;
9970;SDS011;5026;51.494;11.974;2023-02-12T11:28:31;24.63;;;13.47;;
9970;SDS011;5026;51.494;11.974;2023-02-12T11:31:00;25.03;;;13.17;;
9970;SDS011;5026;51.494;11.974;2023-02-12T11:33:29;27.10;;;13.90;;
9970;SDS011;5026;51.494;11.974;2023-02-12T11:35:59;25.23;;;12.57;;
9970;SDS011;5026;51.494;11.974;2023-02-12T11:38:30;22.83;;;12.43;;
9970;SDS011;5026;51.494;11.974;2023-02-12T11:41:01;21.47;;;12.33;;
9970;SDS011;5026;51.494;11.974;2023-02-12T11:43:33;24.37;;;12.23;;
9970;SDS011;5026;51.494;11.974;2023-02-12T11:46:03;22.90;;;12.20;;
9970;SDS011;5026;51.494;11.974;2023-02-12T11:48:32;21.07;;;11.57;;
9970;SDS011;5026;51.494;11.974;2023-02-12T11:51:02;22.37;;;11.70;;
9970;SDS011;5026;51.494;11.974;2023-02-12T11:53:33;23.10;;;11.53;;
9970;SDS011;5026;51.494;11.974;2023-02-12T11:56:04;24.30;;;12.70;;
9970;SDS011;5026;51.494;11.974;2023-02-12T11:58:35;25.27;;;12.53;;
9970;SDS011;5026;51.494;11.974;2023-02-12T12:01:04;23.50;;;11.60;;
9970;SDS011;5026;51.494;11.974;2023-02-12T12:03:38;24.47;;;11.70;;
9970;SDS011;5026;51.494;11.974;2023-02-12T12:06:14;19.73;;;11.50;;
9970;SDS011;5026;51.494;11.974;2023-02-12T12:08:47;27.60;;;11.93;;
9970;SDS011;5026;51.494;11.974;2023-02-12T12:11:19;18.07;;;11.03;;
9970;SDS011;5026;51.494;11.974;2023-02-12T12:13:52;23.10;;;11.07;;
9970;SDS011;5026;51.494;11.974;2023-02-12T12:16:26;23.17;;;10.77;;
9970;SDS011;5026;51.494;11.974;2023-02-12T12:19:18;20.40;;;10.52;;
9970;SDS011;5026;51.494;11.974;2023-02-12T12:22:09;21.13;;;11.13;;
9970;SDS011;5026;51.494;11.974;2023-02-12T12:24:42;21.70;;;10.98;;
9970;SDS011;5026;51.494;11.974;2023-02-12T12:27:18;21.43;;;11.17;;
9970;SDS011;5026;51.494;11.974;2023-02-12T12:30:15;22.35;;;10.40;;
9970;SDS011;5026;51.494;11.974;2023-02-12T12:32:47;19.37;;;10.83;;
9970;SDS011;5026;51.494;11.974;2023-02-12T12:35:18;22.05;;;11.88;;
9970;SDS011;5026;51.494;11.974;2023-02-12T12:37:52;18.42;;;10.50;;
9970;SDS011;5026;51.494;11.974;2023-02-12T12:40:34;17.45;;;9.80;;
9970;SDS011;5026;51.494;11.974;2023-02-12T12:43:10;20.07;;;11.33;;
9970;SDS011;5026;51.494;11.974;2023-02-12T12:45:53;19.20;;;10.47;;
9970;SDS011;5026;51.494;11.974;2023-02-12T12:48:51;21.73;;;10.90;;
9970;SDS011;5026;51.494;11.974;2023-02-12T12:51:50;22.83;;;12.90;;
9970;SDS011;5026;51.494;11.974;2023-02-12T12:54:42;21.40;;;11.52;;
9970;SDS011;5026;51.494;11.974;2023-02-12T12:57:30;20.57;;;11.20;;
9970;SDS011;5026;51.494;11.974;2023-02-12T13:00:09;21.77;;;11.00;;
9970;SDS011;5026;51.494;11.974;2023-02-12T13:02:58;23.40;;;10.93;;
9970;SDS011;5026;51.494;11.974;2023-02-12T13:05:46;21.02;;;11.18;;
9970;SDS011;5026;51.494;11.974;2023-02-12T13:08:42;24.58;;;10.85;;
9970;SDS011;5026;51.494;11.974;2023-02-12T13:11:33;22.08;;;10.68;;
9970;SDS011;5026;51.494;11.974;2023-02-12T13:14:13;19.77;;;10.17;;
9970;SDS011;5026;51.494;11.974;2023-02-12T13:16:53;19.13;;;10.23;;
9970;SDS011;5026;51.494;11.974;2023-02-12T13:19:31;18.55;;;9.77;;
9970;SDS011;5026;51.494;11.974;2023-02-12T13:22:05;20.50;;;9.40;;
9970;SDS011;5026;51.494;11.974;2023-02-12T13:24:37;19.15;;;9.80;;
9970;SDS011;5026;51.494;11.974;2023-02-12T13:27:11;17.98;;;9.63;;
9970;SDS011;5026;51.494;11.974;2023-02-12T13:29:43;18.88;;;9.25;;
9970;SDS011;5026;51.494;11.974;2023-02-12T13:32:13;16.50;;;8.88;;
9970;SDS011;5026;51.494;11.974;2023-02-12T13:34:46;15.70;;;9.15;;
9970;SDS011;5026;51.494;11.974;2023-02-12T13:37:16;17.58;;;8.70;;
9970;SDS011;5026;51.494;11.974;2023-02-12T13:39:46;19.27;;;9.52;;
9970;SDS011;5026;51.494;11.974;2023-02-12T13:42:18;16.80;;;9.93;;
9970;SDS011;5026;51.494;11.974;2023-02-12T13:44:54;17.33;;;9.20;;
9970;SDS011;5026;51.494;11.974;2023-02-12T13:47:27;16.17;;;9.27;;
9970;SDS011;5026;51.494;11.974;2023-02-12T13:50:02;20.05;;;10.30;;
9970;SDS011;5026;51.494;11.974;2023-02-12T13:52:38;20.38;;;10.73;;
9970;SDS011;5026;51.494;11.974;2023-02-12T13:55:13;18.00;;;9.15;;
9970;SDS011;5026;51.494;11.974;2023-02-12T14:00:55;16.80;;;7.97;;
9970;SDS011;5026;51.494;11.974;2023-02-12T14:03:24;21.83;;;9.60;;
9970;SDS011;5026;51.494;11.974;2023-02-12T14:08:38;17.75;;;9.38;;
9970;SDS011;5026;51.494;11.974;2023-02-12T14:11:07;17.13;;;9.40;;
9970;SDS011;5026;51.494;11.974;2023-02-12T14:13:44;20.20;;;9.55;;
9970;SDS011;5026;51.494;11.974;2023-02-12T14:22:10;19.02;;;9.38;;
9970;SDS011;5026;51.494;11.974;2023-02-12T14:27:25;18.55;;;10.00;;
9970;SDS011;5026;51.494;11.974;2023-02-12T14:29:59;18.67;;;9.35;;
9970;SDS011;5026;51.494;11.974;2023-02-12T14:32:54;15.48;;;8.27;;
9970;SDS011;5026;51.494;11.974;2023-02-12T14:35:37;16.92;;;8.85;;
9970;SDS011;5026;51.494;11.974;2023-02-12T14:41:21;15.35;;;8.52;;
9970;SDS011;5026;51.494;11.974;2023-02-12T14:47:12;17.77;;;8.93;;
9970;SDS011;5026;51.494;11.974;2023-02-12T14:50:04;15.77;;;8.52;;
9970;SDS011;5026;51.494;11.974;2023-02-12T14:52:38;20.08;;;8.00;;
9970;SDS011;5026;51.494;11.974;2023-02-12T14:55:17;15.45;;;7.65;;
9970;SDS011;5026;51.494;11.974;2023-02-12T14:57:47;14.17;;;8.13;;
9970;SDS011;5026;51.494;11.974;2023-02-12T15:00:19;16.52;;;7.63;;
9970;SDS011;5026;51.494;11.974;2023-02-12T15:02:51;14.43;;;7.53;;
9970;SDS011;5026;51.494;11.974;2023-02-12T15:05:25;10.50;;;6.47;;
9970;SDS011;5026;51.494;11.974;2023-02-12T15:07:55;15.55;;;8.20;;
9970;SDS011;5026;51.494;11.974;2023-02-12T15:10:26;15.77;;;7.93;;
9970;SDS011;5026;51.494;11.974;2023-02-12T15:13:00;13.95;;;7.55;;
9970;SDS011;5026;51.494;11.974;2023-02-12T15:15:34;11.60;;;6.93;;
9970;SDS011;5026;51.494;11.974;2023-02-12T15:18:10;13.83;;;6.77;;
9970;SDS011;5026;51.494;11.974;2023-02-12T15:20:45;14.50;;;7.63;;
9970;SDS011;5026;51.494;11.974;2023-02-12T15:23:32;17.20;;;8.93;;
9970;SDS011;5026;51.494;11.974;2023-02-12T15:26:02;14.77;;;8.57;;